createdAt,value
2022-10-22T00:00:05.305Z,0.00
2022-10-22T00:01:05.323Z,0.00
2022-10-22T00:02:05.300Z,0.00
2022-10-22T00:03:05.417Z,0.00
2022-10-22T00:04:05.294Z,0.00
2022-10-22T00:05:05.292Z,0.00
2022-10-22T00:06:05.303Z,0.00
2022-10-22T00:07:05.297Z,0.00
2022-10-22T00:08:05.285Z,0.00
2022-10-22T00:09:05.424Z,0.00
2022-10-22T00:10:05.283Z,0.00
2022-10-22T00:11:05.349Z,0.00
2022-10-22T00:12:05.277Z,0.00
2022-10-22T00:13:05.276Z,0.00
2022-10-22T00:14:05.276Z,0.00
2022-10-22T00:15:05.279Z,0.00
2022-10-22T00:16:05.267Z,0.00
2022-10-22T00:17:07.014Z,0.00
2022-10-22T00:18:05.262Z,0.00
2022-10-22T00:19:05.255Z,0.00
2022-10-22T00:20:05.285Z,0.00
2022-10-22T00:21:05.258Z,0.00
2022-10-22T00:22:05.260Z,0.00
2022-10-22T00:23:05.256Z,0.00
2022-10-22T00:24:05.247Z,0.00
2022-10-22T00:25:05.258Z,0.00
2022-10-22T00:26:05.252Z,0.00
2022-10-22T00:27:05.255Z,0.00
2022-10-22T00:28:05.250Z,0.00
2022-10-22T00:29:05.241Z,0.00
2022-10-22T00:30:05.238Z,0.00
2022-10-22T00:31:05.238Z,0.00
2022-10-22T00:32:05.232Z,0.00
2022-10-22T00:33:05.224Z,0.00
2022-10-22T00:34:05.223Z,0.00
2022-10-22T00:35:05.240Z,0.00
2022-10-22T00:36:05.245Z,0.00
2022-10-22T00:37:05.241Z,0.00
2022-10-22T00:38:05.220Z,0.00
2022-10-22T00:39:05.230Z,0.00
2022-10-22T00:40:05.229Z,0.00
2022-10-22T00:41:05.273Z,0.00
2022-10-22T00:42:05.205Z,0.00
2022-10-22T00:43:05.216Z,0.00
2022-10-22T00:44:05.207Z,0.00
2022-10-22T00:45:05.266Z,0.00
2022-10-22T00:46:05.203Z,0.00
2022-10-22T00:47:05.204Z,0.00
2022-10-22T00:48:05.196Z,0.00
2022-10-22T00:49:05.188Z,0.00
2022-10-22T00:50:05.211Z,0.00
2022-10-22T00:51:05.187Z,0.00
2022-10-22T00:52:05.180Z,0.00
2022-10-22T00:53:05.182Z,0.00
2022-10-22T00:54:05.172Z,0.00
2022-10-22T00:55:05.171Z,0.00
2022-10-22T00:56:05.176Z,0.00
2022-10-22T00:57:05.165Z,0.00
2022-10-22T00:58:05.164Z,0.00
2022-10-22T00:59:05.190Z,0.00
2022-10-22T01:00:05.160Z,0.00
2022-10-22T01:01:05.237Z,0.00
2022-10-22T01:02:05.162Z,0.00
2022-10-22T01:03:05.159Z,0.00
2022-10-22T01:04:05.147Z,0.00
2022-10-22T01:05:05.151Z,0.00
2022-10-22T01:06:05.153Z,0.00
2022-10-22T01:07:05.144Z,0.00
2022-10-22T01:08:05.155Z,0.00
2022-10-22T01:09:05.204Z,0.00
2022-10-22T01:10:05.140Z,0.00
2022-10-22T01:11:05.138Z,0.00
2022-10-22T01:12:05.125Z,0.00
2022-10-22T01:13:05.134Z,0.00
2022-10-22T01:14:05.123Z,0.00
2022-10-22T01:15:05.127Z,0.00
2022-10-22T01:16:05.123Z,0.00
2022-10-22T01:17:05.123Z,0.00
2022-10-22T01:18:05.117Z,0.00
2022-10-22T01:19:05.118Z,0.00
2022-10-22T01:20:05.127Z,0.00
2022-10-22T01:21:05.117Z,0.00
2022-10-22T01:22:05.108Z,0.00
2022-10-22T01:23:05.109Z,0.00
2022-10-22T01:24:05.096Z,0.00
2022-10-22T01:25:05.095Z,0.00
2022-10-22T01:26:05.095Z,0.00
2022-10-22T01:27:05.095Z,0.00
2022-10-22T01:28:05.095Z,0.00
2022-10-22T01:29:05.099Z,0.00
2022-10-22T01:30:05.099Z,0.00
2022-10-22T01:31:05.083Z,0.00
2022-10-22T01:32:05.073Z,0.00
2022-10-22T01:33:05.080Z,0.00
2022-10-22T01:34:05.077Z,0.00
2022-10-22T01:35:05.074Z,0.00
2022-10-22T01:36:05.077Z,0.00
2022-10-22T01:37:05.072Z,0.00
2022-10-22T01:38:05.061Z,0.00
2022-10-22T01:39:05.065Z,0.00
2022-10-22T01:40:05.090Z,0.00
2022-10-22T01:41:05.065Z,0.00
2022-10-22T01:42:05.062Z,0.00
2022-10-22T01:43:05.071Z,0.00
2022-10-22T01:44:05.043Z,0.00
2022-10-22T01:45:05.046Z,0.00
2022-10-22T01:46:05.054Z,0.00
2022-10-22T01:47:05.040Z,0.00
2022-10-22T01:48:05.037Z,0.00
2022-10-22T01:49:05.038Z,0.00
2022-10-22T01:50:05.036Z,0.00
2022-10-22T01:51:05.038Z,0.00
2022-10-22T01:52:05.026Z,0.00
2022-10-22T01:53:05.031Z,0.00
2022-10-22T01:54:05.036Z,0.00
2022-10-22T01:55:05.040Z,0.00
2022-10-22T01:56:05.024Z,0.00
2022-10-22T01:57:05.025Z,0.00
2022-10-22T01:58:05.013Z,0.00
2022-10-22T01:59:05.026Z,0.00
2022-10-22T02:00:05.011Z,0.00
2022-10-22T02:01:05.098Z,0.00
2022-10-22T02:02:05.015Z,0.00
2022-10-22T02:03:05.012Z,0.00
2022-10-22T02:04:05.020Z,0.00
2022-10-22T02:05:05.007Z,0.00
2022-10-22T02:06:04.995Z,0.00
2022-10-22T02:07:04.988Z,0.00
2022-10-22T02:08:04.989Z,0.00
2022-10-22T02:09:05.024Z,0.00
2022-10-22T02:10:04.985Z,0.00
2022-10-22T02:11:04.997Z,0.00
2022-10-22T02:13:04.979Z,0.00
2022-10-22T02:14:04.980Z,0.00
2022-10-22T02:15:04.976Z,0.00
2022-10-22T02:16:04.975Z,0.00
2022-10-22T02:17:04.971Z,0.00
2022-10-22T02:18:04.966Z,0.00
2022-10-22T02:19:04.959Z,0.00
2022-10-22T02:20:04.965Z,0.00
2022-10-22T02:21:05.006Z,0.00
2022-10-22T02:22:04.969Z,0.00
2022-10-22T02:23:04.964Z,0.00
2022-10-22T02:24:04.949Z,0.00
2022-10-22T02:25:04.952Z,0.00
2022-10-22T02:26:04.943Z,0.00
2022-10-22T02:27:04.971Z,0.00
2022-10-22T02:28:04.936Z,0.00
2022-10-22T02:29:04.939Z,0.00
2022-10-22T02:30:04.978Z,0.00
2022-10-22T02:31:04.940Z,0.00
2022-10-22T02:32:04.932Z,0.00
2022-10-22T02:33:04.913Z,0.00
2022-10-22T02:34:04.928Z,0.00
2022-10-22T02:35:04.997Z,0.00
2022-10-22T02:36:04.912Z,0.00
2022-10-22T02:37:04.915Z,0.00
2022-10-22T02:38:04.904Z,0.00
2022-10-22T02:39:04.993Z,0.00
2022-10-22T02:40:04.909Z,0.00
2022-10-22T02:41:04.897Z,0.00
2022-10-22T02:42:04.916Z,0.00
2022-10-22T02:43:04.938Z,0.00
2022-10-22T02:44:04.890Z,0.00
2022-10-22T02:45:04.893Z,0.00
2022-10-22T02:46:04.895Z,0.00
2022-10-22T02:47:04.891Z,0.00
2022-10-22T02:48:04.887Z,0.00
2022-10-22T02:49:04.881Z,0.00
2022-10-22T02:50:07.895Z,0.00
2022-10-22T02:51:04.891Z,0.00
2022-10-22T02:52:04.887Z,0.00
2022-10-22T02:53:04.876Z,0.00
2022-10-22T02:54:04.875Z,0.00
2022-10-22T02:55:04.863Z,0.00
2022-10-22T02:56:04.865Z,0.00
2022-10-22T02:57:04.879Z,0.00
2022-10-22T02:58:04.865Z,0.00
2022-10-22T02:59:04.864Z,0.00
2022-10-22T03:00:04.857Z,0.00
2022-10-22T03:01:04.904Z,0.00
2022-10-22T03:02:04.845Z,0.00
2022-10-22T03:03:04.889Z,0.00
2022-10-22T03:04:04.874Z,0.00
2022-10-22T03:05:04.840Z,0.00
2022-10-22T03:06:04.886Z,0.00
2022-10-22T03:07:04.861Z,0.00
2022-10-22T03:08:04.830Z,0.00
2022-10-22T03:09:04.906Z,0.00
2022-10-22T03:10:04.868Z,0.00
2022-10-22T03:11:04.860Z,0.00
2022-10-22T03:12:04.828Z,0.00
2022-10-22T03:13:04.892Z,0.00
2022-10-22T03:14:04.854Z,0.00
2022-10-22T03:15:04.823Z,0.00
2022-10-22T03:16:04.813Z,0.00
2022-10-22T03:17:04.808Z,0.00
2022-10-22T03:18:04.821Z,0.00
2022-10-22T03:19:04.798Z,0.00
2022-10-22T03:20:04.804Z,0.00
2022-10-22T03:21:04.800Z,0.00
2022-10-22T03:22:04.801Z,0.00
2022-10-22T03:23:04.823Z,0.00
2022-10-22T03:24:04.788Z,0.00
2022-10-22T03:25:04.785Z,0.00
2022-10-22T03:26:04.789Z,0.00
2022-10-22T03:27:04.784Z,0.00
2022-10-22T03:28:04.797Z,0.00
2022-10-22T03:29:04.795Z,0.00
2022-10-22T03:30:04.843Z,0.00
2022-10-22T03:31:04.774Z,0.00
2022-10-22T03:32:04.788Z,0.00
2022-10-22T03:33:04.770Z,0.00
2022-10-22T03:34:04.769Z,0.00
2022-10-22T03:35:04.779Z,0.00
2022-10-22T03:36:04.750Z,0.00
2022-10-22T03:37:04.757Z,0.00
2022-10-22T03:38:04.752Z,0.00
2022-10-22T03:39:04.784Z,0.00
2022-10-22T03:40:04.741Z,0.00
2022-10-22T03:41:04.752Z,0.00
2022-10-22T03:42:04.745Z,0.00
2022-10-22T03:43:04.733Z,0.00
2022-10-22T03:44:04.726Z,0.00
2022-10-22T03:45:04.728Z,0.00
2022-10-22T03:46:11.892Z,0.00
2022-10-22T03:48:08.756Z,0.00
2022-10-22T03:49:08.718Z,0.00
2022-10-22T03:51:12.759Z,0.00
2022-10-22T03:52:12.710Z,0.00
2022-10-22T03:54:16.724Z,0.00
2022-10-22T03:55:16.684Z,0.00
2022-10-22T03:57:09.615Z,0.00
2022-10-22T03:58:09.617Z,0.00
2022-10-22T04:00:13.647Z,0.00
2022-10-22T04:01:13.595Z,0.00
2022-10-22T04:03:17.623Z,0.00
2022-10-22T04:04:17.584Z,0.00
2022-10-22T04:06:10.532Z,0.00
2022-10-22T04:07:10.484Z,0.00
2022-10-22T04:09:14.533Z,0.00
2022-10-22T04:10:14.480Z,0.00
2022-10-22T04:12:18.488Z,0.00
2022-10-22T04:13:18.446Z,0.00
2022-10-22T04:15:22.466Z,0.00
2022-10-22T04:16:24.119Z,0.00
2022-10-22T04:18:26.444Z,0.00
2022-10-22T04:19:26.417Z,0.00
2022-10-22T04:20:26.411Z,0.00
2022-10-22T04:21:26.404Z,0.00
2022-10-22T04:22:26.409Z,0.00
2022-10-22T04:23:26.403Z,0.00
2022-10-22T04:24:26.402Z,0.00
2022-10-22T04:25:26.407Z,0.00
2022-10-22T04:26:26.393Z,0.00
2022-10-22T04:27:26.392Z,0.00
2022-10-22T04:28:26.393Z,0.00
2022-10-22T04:29:26.388Z,0.00
2022-10-22T04:30:26.407Z,0.00
2022-10-22T04:31:26.599Z,0.00
2022-10-22T04:32:26.414Z,0.00
2022-10-22T04:33:26.378Z,0.00
2022-10-22T04:34:26.396Z,0.00
2022-10-22T04:35:26.383Z,0.00
2022-10-22T04:36:26.368Z,0.00
2022-10-22T04:37:26.361Z,0.00
2022-10-22T04:38:26.368Z,0.00
2022-10-22T04:39:26.479Z,0.00
2022-10-22T04:40:26.356Z,0.00
2022-10-22T04:41:26.351Z,0.00
2022-10-22T04:42:26.370Z,0.00
2022-10-22T04:43:26.434Z,0.00
2022-10-22T04:44:26.376Z,0.00
2022-10-22T04:45:26.389Z,0.00
2022-10-22T04:46:26.347Z,0.00
2022-10-22T04:47:26.340Z,0.00
2022-10-22T04:48:26.329Z,0.00
2022-10-22T04:49:26.330Z,0.00
2022-10-22T04:50:26.332Z,0.00
2022-10-22T04:51:26.326Z,0.00
2022-10-22T04:52:26.335Z,0.00
2022-10-22T04:53:26.331Z,0.00
2022-10-22T04:54:29.054Z,0.00
2022-10-22T04:55:26.383Z,0.00
2022-10-22T04:56:26.320Z,0.00
2022-10-22T04:57:26.312Z,0.00
2022-10-22T04:58:26.312Z,0.00
2022-10-22T04:59:26.309Z,0.00
2022-10-22T05:00:26.309Z,0.00
2022-10-22T05:01:26.338Z,0.00
2022-10-22T05:02:26.303Z,0.00
2022-10-22T05:03:26.304Z,0.00
2022-10-22T05:04:26.313Z,0.00
2022-10-22T05:05:26.298Z,0.00
2022-10-22T05:06:26.289Z,0.00
2022-10-22T05:07:26.297Z,0.00
2022-10-22T05:08:26.284Z,0.00
2022-10-22T05:09:26.280Z,0.00
2022-10-22T05:10:26.287Z,0.00
2022-10-22T05:11:26.286Z,0.00
2022-10-22T05:12:26.266Z,0.00
2022-10-22T05:13:26.266Z,0.00
2022-10-22T05:14:26.275Z,0.00
2022-10-22T05:15:26.275Z,0.00
2022-10-22T05:16:26.265Z,0.00
2022-10-22T05:17:26.270Z,0.00
2022-10-22T05:18:26.247Z,4.00
2022-10-22T05:19:26.277Z,4.00
2022-10-22T05:20:26.257Z,0.00
2022-10-22T05:21:26.271Z,4.00
2022-10-22T05:22:26.244Z,4.00
2022-10-22T05:23:26.252Z,4.00
2022-10-22T05:24:26.262Z,4.00
2022-10-22T05:25:26.251Z,8.00
2022-10-22T05:26:26.234Z,8.00
2022-10-22T05:27:26.250Z,8.00
2022-10-22T05:28:26.233Z,12.00
2022-10-22T05:29:26.217Z,12.00
2022-10-22T05:30:26.228Z,12.00
2022-10-22T05:31:26.223Z,16.00
2022-10-22T05:32:26.232Z,20.00
2022-10-22T05:33:26.217Z,20.00
2022-10-22T05:34:26.218Z,20.00
2022-10-22T05:35:26.223Z,20.00
2022-10-22T05:36:26.199Z,24.00
2022-10-22T05:37:26.217Z,24.00
2022-10-22T05:38:26.247Z,28.00
2022-10-22T05:39:26.211Z,32.00
2022-10-22T05:40:30.993Z,36.00
2022-10-22T05:41:26.194Z,40.00
2022-10-22T05:42:26.188Z,48.00
2022-10-22T05:43:26.198Z,48.00
2022-10-22T05:44:26.184Z,56.00
2022-10-22T05:45:26.199Z,64.00
2022-10-22T05:46:26.186Z,68.00
2022-10-22T05:47:26.201Z,76.00
2022-10-22T05:48:26.209Z,80.00
2022-10-22T05:49:26.175Z,80.00
2022-10-22T05:50:26.166Z,88.00
2022-10-22T05:51:26.161Z,96.00
2022-10-22T05:52:26.162Z,100.00
2022-10-22T05:53:26.161Z,104.00
2022-10-22T05:54:26.155Z,108.00
2022-10-22T05:55:26.155Z,112.00
2022-10-22T05:56:26.174Z,120.00
2022-10-22T05:57:26.160Z,120.00
2022-10-22T05:58:26.133Z,120.00
2022-10-22T05:59:26.196Z,124.00
2022-10-22T06:00:26.129Z,132.00
2022-10-22T06:01:26.132Z,144.00
2022-10-22T06:02:26.188Z,148.00
2022-10-22T06:03:26.129Z,160.00
2022-10-22T06:04:26.123Z,172.00
2022-10-22T06:05:26.124Z,188.00
2022-10-22T06:06:26.126Z,204.00
2022-10-22T06:07:26.125Z,224.00
2022-10-22T06:08:26.121Z,244.00
2022-10-22T06:09:26.184Z,260.00
2022-10-22T06:10:26.106Z,276.00
2022-10-22T06:11:27.939Z,292.00
2022-10-22T06:12:26.164Z,304.00
2022-10-22T06:13:26.099Z,312.00
2022-10-22T06:14:26.089Z,308.00
2022-10-22T06:15:26.111Z,304.00
2022-10-22T06:16:26.087Z,308.00
2022-10-22T06:17:26.100Z,304.00
2022-10-22T06:18:26.088Z,308.00
2022-10-22T06:19:26.079Z,304.00
2022-10-22T06:20:26.077Z,308.00
2022-10-22T06:21:26.086Z,308.00
2022-10-22T06:22:26.075Z,316.00
2022-10-22T06:23:26.066Z,328.00
2022-10-22T06:24:26.073Z,344.00
2022-10-22T06:25:26.077Z,364.00
2022-10-22T06:26:26.065Z,384.00
2022-10-22T06:27:26.064Z,404.00
2022-10-22T06:28:26.073Z,428.00
2022-10-22T06:29:26.083Z,448.00
2022-10-22T06:30:26.055Z,472.00
2022-10-22T06:31:26.065Z,488.00
2022-10-22T06:32:26.058Z,520.00
2022-10-22T06:33:26.052Z,548.00
2022-10-22T06:34:26.033Z,576.00
2022-10-22T06:35:26.031Z,608.00
2022-10-22T06:36:26.045Z,656.00
2022-10-22T06:37:26.138Z,672.00
2022-10-22T06:38:26.036Z,672.00
2022-10-22T06:39:26.051Z,672.00
2022-10-22T06:40:26.102Z,668.00
2022-10-22T06:41:28.963Z,668.00
2022-10-22T06:42:26.026Z,672.00
2022-10-22T06:43:26.005Z,660.00
2022-10-22T06:44:26.002Z,660.00
2022-10-22T06:45:26.009Z,640.00
2022-10-22T06:46:26.032Z,628.00
2022-10-22T06:47:26.010Z,604.00
2022-10-22T06:48:26.016Z,592.00
2022-10-22T06:49:26.027Z,556.00
2022-10-22T06:50:26.048Z,512.00
2022-10-22T06:51:26.020Z,488.00
2022-10-22T06:52:26.015Z,468.00
2022-10-22T06:53:25.994Z,468.00
2022-10-22T06:54:25.975Z,480.00
2022-10-22T06:55:26.044Z,508.00
2022-10-22T06:56:25.975Z,540.00
2022-10-22T06:57:25.975Z,584.00
2022-10-22T06:58:25.975Z,640.00
2022-10-22T06:59:25.977Z,680.00
2022-10-22T07:00:26.109Z,736.00
2022-10-22T07:01:25.993Z,764.00
2022-10-22T07:02:25.972Z,756.00
2022-10-22T07:03:25.970Z,744.00
2022-10-22T07:04:25.944Z,744.00
2022-10-22T07:05:27.865Z,748.00
2022-10-22T07:06:25.953Z,732.00
2022-10-22T07:07:25.950Z,744.00
2022-10-22T07:08:27.152Z,756.00
2022-10-22T07:09:25.936Z,792.00
2022-10-22T07:10:28.493Z,808.00
2022-10-22T07:11:25.949Z,844.00
2022-10-22T07:12:25.991Z,872.00
2022-10-22T07:13:25.962Z,900.00
2022-10-22T07:14:25.917Z,932.00
2022-10-22T07:15:25.957Z,960.00
2022-10-22T07:16:29.619Z,988.00
2022-10-22T07:17:25.917Z,1036.00
2022-10-22T07:18:25.914Z,1068.00
2022-10-22T07:19:25.942Z,1096.00
2022-10-22T07:20:25.915Z,1148.00
2022-10-22T07:21:25.903Z,1152.00
2022-10-22T07:22:25.895Z,1184.00
2022-10-22T07:23:25.910Z,1196.00
2022-10-22T07:24:25.903Z,1212.00
2022-10-22T07:25:25.907Z,1240.00
2022-10-22T07:26:25.887Z,1284.00
2022-10-22T07:27:25.894Z,1336.00
2022-10-22T07:28:25.891Z,1360.00
2022-10-22T07:29:25.897Z,1408.00
2022-10-22T07:30:25.918Z,1428.00
2022-10-22T07:31:25.898Z,1480.00
2022-10-22T07:32:25.894Z,1544.00
2022-10-22T07:33:25.877Z,1656.00
2022-10-22T07:34:25.870Z,1844.00
2022-10-22T07:35:25.867Z,2092.00
2022-10-22T07:36:25.874Z,2408.00
2022-10-22T07:37:25.859Z,2608.00
2022-10-22T07:38:25.859Z,3120.00
2022-10-22T07:39:25.857Z,3316.00
2022-10-22T07:40:25.857Z,3588.00
2022-10-22T07:41:25.856Z,3992.00
2022-10-22T07:42:25.903Z,4028.00
2022-10-22T07:43:25.903Z,3812.00
2022-10-22T07:44:25.844Z,3948.00
2022-10-22T07:45:25.842Z,3784.00
2022-10-22T07:46:25.833Z,3548.00
2022-10-22T07:47:25.833Z,3332.00
2022-10-22T07:48:25.867Z,3044.00
2022-10-22T07:49:25.836Z,2764.00
2022-10-22T07:50:25.831Z,2616.00
2022-10-22T07:51:25.918Z,2580.00
2022-10-22T07:52:25.838Z,2656.00
2022-10-22T07:53:25.992Z,2628.00
2022-10-22T07:54:25.819Z,2516.00
2022-10-22T07:55:25.950Z,2444.00
2022-10-22T07:56:25.817Z,2292.00
2022-10-22T07:57:25.852Z,2144.00
2022-10-22T07:58:25.811Z,1884.00
2022-10-22T07:59:25.804Z,1672.00
2022-10-22T08:00:25.819Z,1564.00
2022-10-22T08:01:25.912Z,1496.00
2022-10-22T08:02:25.824Z,1396.00
2022-10-22T08:03:25.792Z,1384.00
2022-10-22T08:04:25.821Z,1428.00
2022-10-22T08:05:25.812Z,1360.00
2022-10-22T08:06:25.801Z,1388.00
2022-10-22T08:08:28.359Z,1480.00
2022-10-22T08:09:25.782Z,1548.00
2022-10-22T08:10:25.806Z,1540.00
2022-10-22T08:11:25.804Z,1612.00
2022-10-22T08:12:25.792Z,1712.00
2022-10-22T08:13:25.781Z,1768.00
2022-10-22T08:14:25.795Z,1812.00
2022-10-22T08:15:25.767Z,1908.00
2022-10-22T08:16:25.777Z,1944.00
2022-10-22T08:17:25.782Z,1956.00
2022-10-22T08:18:25.764Z,1956.00
2022-10-22T08:19:25.766Z,1964.00
2022-10-22T08:20:25.774Z,1972.00
2022-10-22T08:21:25.782Z,1992.00
2022-10-22T08:22:25.760Z,1976.00
2022-10-22T08:23:27.757Z,1944.00
2022-10-22T08:24:25.754Z,1916.00
2022-10-22T08:25:25.758Z,1888.00
2022-10-22T08:26:25.749Z,1908.00
2022-10-22T08:27:25.754Z,1912.00
2022-10-22T08:28:25.748Z,1912.00
2022-10-22T08:29:25.742Z,1900.00
2022-10-22T08:30:25.738Z,1884.00
2022-10-22T08:31:25.740Z,1864.00
2022-10-22T08:33:25.729Z,1880.00
2022-10-22T08:34:25.739Z,1912.00
2022-10-22T08:35:25.739Z,1936.00
2022-10-22T08:36:25.747Z,1912.00
2022-10-22T08:37:25.761Z,1880.00
2022-10-22T08:38:25.712Z,1920.00
2022-10-22T08:39:25.754Z,1924.00
2022-10-22T08:40:25.718Z,1920.00
2022-10-22T08:41:25.714Z,1884.00
2022-10-22T08:42:25.720Z,1812.00
2022-10-22T08:43:25.710Z,1792.00
2022-10-22T08:44:25.714Z,1796.00
2022-10-22T08:45:25.704Z,1828.00
2022-10-22T08:46:25.699Z,1888.00
2022-10-22T08:47:25.722Z,1936.00
2022-10-22T08:48:25.697Z,1968.00
2022-10-22T08:49:25.723Z,1992.00
2022-10-22T08:50:25.695Z,2024.00
2022-10-22T08:51:25.690Z,2076.00
2022-10-22T08:52:25.693Z,2132.00
2022-10-22T08:53:25.685Z,2192.00
2022-10-22T08:54:25.692Z,2252.00
2022-10-22T08:55:25.698Z,2332.00
2022-10-22T08:56:25.698Z,2420.00
2022-10-22T08:57:25.720Z,2512.00
2022-10-22T08:58:25.672Z,2596.00
2022-10-22T08:59:25.682Z,2684.00
2022-10-22T09:00:25.666Z,2748.00
2022-10-22T09:01:25.681Z,2772.00
2022-10-22T09:02:25.674Z,2772.00
2022-10-22T09:03:25.676Z,2824.00
2022-10-22T09:04:25.670Z,3024.00
2022-10-22T09:05:25.652Z,3268.00
2022-10-22T09:06:25.671Z,3416.00
2022-10-22T09:07:25.715Z,3532.00
2022-10-22T09:08:25.711Z,3664.00
2022-10-22T09:09:25.652Z,3708.00
2022-10-22T09:10:25.651Z,3764.00
2022-10-22T09:11:25.654Z,3840.00
2022-10-22T09:12:25.698Z,3524.00
2022-10-22T09:13:25.667Z,3252.00
2022-10-22T09:14:25.642Z,2680.00
2022-10-22T09:15:25.674Z,2296.00
2022-10-22T09:16:25.644Z,2240.00
2022-10-22T09:17:25.632Z,2436.00
2022-10-22T09:18:25.646Z,2428.00
2022-10-22T09:19:25.662Z,2376.00
2022-10-22T09:20:25.635Z,2356.00
2022-10-22T09:21:25.638Z,2416.00
2022-10-22T09:22:25.675Z,2616.00
2022-10-22T09:23:25.634Z,2644.00
2022-10-22T09:24:27.492Z,2632.00
2022-10-22T09:25:25.620Z,2460.00
2022-10-22T09:26:25.622Z,2532.00
2022-10-22T09:27:25.625Z,2624.00
2022-10-22T09:28:25.633Z,2632.00
2022-10-22T09:29:25.615Z,2492.00
2022-10-22T09:30:25.624Z,2264.00
2022-10-22T09:31:25.619Z,2148.00
2022-10-22T09:32:25.624Z,2164.00
2022-10-22T09:33:25.617Z,2152.00
2022-10-22T09:34:25.624Z,2116.00
2022-10-22T09:35:25.602Z,2216.00
2022-10-22T09:36:25.610Z,2404.00
2022-10-22T09:37:25.617Z,2436.00
2022-10-22T09:38:25.602Z,2444.00
2022-10-22T09:39:25.616Z,2336.00
2022-10-22T09:40:25.636Z,2304.00
2022-10-22T09:41:25.598Z,2124.00
2022-10-22T09:42:25.613Z,1964.00
2022-10-22T09:43:25.595Z,2084.00
2022-10-22T09:44:25.603Z,2052.00
2022-10-22T09:45:25.590Z,2424.00
2022-10-22T09:46:25.594Z,2636.00
2022-10-22T09:47:37.259Z,2800.00
2022-10-22T09:48:25.582Z,2804.00
2022-10-22T09:49:25.582Z,2740.00
2022-10-22T09:50:25.612Z,2852.00
2022-10-22T09:51:25.584Z,2724.00
2022-10-22T09:52:25.600Z,2744.00
2022-10-22T09:53:25.572Z,2656.00
2022-10-22T09:54:25.580Z,2772.00
2022-10-22T09:55:25.591Z,2940.00
2022-10-22T09:56:25.585Z,2684.00
2022-10-22T09:57:25.587Z,2680.00
2022-10-22T09:58:25.577Z,2840.00
2022-10-22T09:59:25.569Z,2416.00
2022-10-22T10:00:25.584Z,2336.00
2022-10-22T10:01:25.562Z,2336.00
2022-10-22T10:02:39.430Z,2244.00
2022-10-22T10:03:25.631Z,2272.00
2022-10-22T10:05:25.567Z,1996.00
2022-10-22T10:06:25.564Z,2136.00
2022-10-22T10:07:25.565Z,2040.00
2022-10-22T10:08:25.575Z,1872.00
2022-10-22T10:09:25.563Z,1748.00
2022-10-22T10:10:25.566Z,1732.00
2022-10-22T10:11:28.908Z,1720.00
2022-10-22T10:12:25.562Z,1748.00
2022-10-22T10:13:25.552Z,1584.00
2022-10-22T10:14:25.565Z,1568.00
2022-10-22T10:15:25.626Z,1476.00
2022-10-22T10:16:25.551Z,1460.00
2022-10-22T10:17:25.557Z,1288.00
2022-10-22T10:18:25.561Z,1160.00
2022-10-22T10:19:25.549Z,1152.00
2022-10-22T10:20:25.565Z,1308.00
2022-10-22T10:21:25.603Z,1428.00
2022-10-22T10:22:25.600Z,1308.00
2022-10-22T10:23:25.584Z,1208.00
2022-10-22T10:24:25.534Z,1284.00
2022-10-22T10:25:25.549Z,1368.00
2022-10-22T10:26:25.616Z,1316.00
2022-10-22T10:27:25.565Z,1512.00
2022-10-22T10:28:25.542Z,1536.00
2022-10-22T10:29:25.569Z,1596.00
2022-10-22T10:30:25.539Z,1556.00
2022-10-22T10:31:25.538Z,1572.00
2022-10-22T10:32:25.526Z,1648.00
2022-10-22T10:33:25.521Z,1780.00
2022-10-22T10:34:25.536Z,1912.00
2022-10-22T10:35:25.553Z,2004.00
2022-10-22T10:36:25.546Z,2048.00
2022-10-22T10:37:25.520Z,2340.00
2022-10-22T10:38:28.749Z,2464.00
2022-10-22T10:39:25.514Z,2576.00
2022-10-22T10:40:25.526Z,2540.00
2022-10-22T10:41:25.537Z,2504.00
2022-10-22T10:42:25.530Z,2712.00
2022-10-22T10:43:25.508Z,3060.00
2022-10-22T10:44:25.522Z,3112.00
2022-10-22T10:45:25.522Z,2844.00
2022-10-22T10:46:25.529Z,2876.00
2022-10-22T10:47:25.516Z,2768.00
2022-10-22T10:48:25.502Z,2712.00
2022-10-22T10:49:25.508Z,2676.00
2022-10-22T10:50:25.511Z,2644.00
2022-10-22T10:51:25.513Z,2664.00
2022-10-22T10:52:25.503Z,2552.00
2022-10-22T10:53:25.506Z,2648.00
2022-10-22T10:54:25.563Z,2448.00
2022-10-22T10:55:25.519Z,2648.00
2022-10-22T10:56:25.513Z,3116.00
2022-10-22T10:57:25.500Z,3584.00
2022-10-22T10:58:25.495Z,3864.00
2022-10-22T10:59:25.491Z,3948.00
2022-10-22T11:00:25.501Z,4060.00
2022-10-22T11:01:25.508Z,4000.00
2022-10-22T11:02:25.511Z,4032.00
2022-10-22T11:03:25.494Z,4616.00
2022-10-22T11:04:25.497Z,4460.00
2022-10-22T11:05:25.533Z,5176.00
2022-10-22T11:06:25.801Z,4944.00
2022-10-22T11:07:34.243Z,5336.00
2022-10-22T11:08:25.491Z,5016.00
2022-10-22T11:09:25.501Z,4288.00
2022-10-22T11:10:25.497Z,3804.00
2022-10-22T11:11:25.495Z,3596.00
2022-10-22T11:12:25.491Z,3504.00
2022-10-22T11:13:25.507Z,4012.00
2022-10-22T11:14:27.853Z,5652.00
2022-10-22T11:15:25.488Z,5488.00
2022-10-22T11:16:25.482Z,4156.00
2022-10-22T11:17:25.490Z,3384.00
2022-10-22T11:18:25.489Z,2792.00
2022-10-22T11:19:46.080Z,2732.00
2022-10-22T11:20:25.481Z,3428.00
2022-10-22T11:21:25.489Z,4292.00
2022-10-22T11:22:26.959Z,3956.00
2022-10-22T11:23:25.819Z,4756.00
2022-10-22T11:24:25.493Z,5648.00
2022-10-22T11:25:25.479Z,5460.00
2022-10-22T11:26:25.497Z,5276.00
2022-10-22T11:27:25.486Z,4400.00
2022-10-22T11:28:25.476Z,4232.00
2022-10-22T11:29:27.270Z,4296.00
2022-10-22T11:30:25.482Z,3884.00
2022-10-22T11:31:25.503Z,3744.00
2022-10-22T11:32:25.482Z,3592.00
2022-10-22T11:33:25.491Z,3632.00
2022-10-22T11:34:34.110Z,3340.00
2022-10-22T11:35:26.018Z,3916.00
2022-10-22T11:36:25.536Z,3660.00
2022-10-22T11:37:25.478Z,3236.00
2022-10-22T11:38:25.486Z,3088.00
2022-10-22T11:39:25.553Z,3124.00
2022-10-22T11:40:25.483Z,3488.00
2022-10-22T11:41:25.495Z,3064.00
2022-10-22T11:42:25.499Z,3052.00
2022-10-22T11:43:25.492Z,2868.00
2022-10-22T11:44:25.505Z,3176.00
2022-10-22T11:45:25.484Z,3020.00
2022-10-22T11:46:25.478Z,3312.00
2022-10-22T11:47:25.486Z,2796.00
2022-10-22T11:48:25.477Z,2592.00
2022-10-22T11:49:25.478Z,2720.00
2022-10-22T11:50:25.534Z,3520.00
2022-10-22T11:51:25.486Z,3876.00
2022-10-22T11:52:25.485Z,3428.00
2022-10-22T11:53:25.473Z,2748.00
2022-10-22T11:54:25.483Z,2128.00
2022-10-22T11:55:25.479Z,2132.00
2022-10-22T11:56:25.476Z,2612.00
2022-10-22T11:57:25.486Z,3080.00
2022-10-22T11:58:25.471Z,2976.00
2022-10-22T11:59:25.478Z,3112.00
2022-10-22T12:00:25.481Z,2928.00
2022-10-22T12:01:25.546Z,2764.00
2022-10-22T12:02:25.476Z,2884.00
2022-10-22T12:03:25.465Z,3000.00
2022-10-22T12:04:25.526Z,3356.00
2022-10-22T12:05:25.486Z,3464.00
2022-10-22T12:06:25.493Z,2888.00
2022-10-22T12:07:25.471Z,2968.00
2022-10-22T12:08:25.491Z,3196.00
2022-10-22T12:09:25.482Z,2796.00
2022-10-22T12:10:25.482Z,2796.00
2022-10-22T12:11:25.479Z,2956.00
2022-10-22T12:12:25.495Z,2976.00
2022-10-22T12:13:25.471Z,2768.00
2022-10-22T12:14:25.486Z,2612.00
2022-10-22T12:15:25.492Z,2540.00
2022-10-22T12:16:32.402Z,2560.00
2022-10-22T12:17:25.472Z,2576.00
2022-10-22T12:18:25.480Z,2552.00
2022-10-22T12:19:25.478Z,2568.00
2022-10-22T12:20:25.474Z,2588.00
2022-10-22T12:21:25.489Z,2616.00
2022-10-22T12:22:25.480Z,2648.00
2022-10-22T12:23:25.481Z,2700.00
2022-10-22T12:24:25.498Z,2672.00
2022-10-22T12:25:25.469Z,2628.00
2022-10-22T12:26:25.525Z,2628.00
2022-10-22T12:27:25.481Z,2596.00
2022-10-22T12:28:25.471Z,2540.00
2022-10-22T12:29:25.472Z,2516.00
2022-10-22T12:30:25.475Z,2672.00
2022-10-22T12:31:25.480Z,2520.00
2022-10-22T12:32:25.482Z,2564.00
2022-10-22T12:33:25.481Z,2568.00
2022-10-22T12:34:25.507Z,2464.00
2022-10-22T12:35:25.475Z,2512.00
2022-10-22T12:36:25.475Z,2488.00
2022-10-22T12:37:25.478Z,2440.00
2022-10-22T12:38:25.478Z,2492.00
2022-10-22T12:39:25.491Z,2464.00
2022-10-22T12:40:25.489Z,2492.00
2022-10-22T12:41:25.493Z,2480.00
2022-10-22T12:42:25.535Z,2476.00
2022-10-22T12:43:25.471Z,2448.00
2022-10-22T12:44:25.482Z,2452.00
2022-10-22T12:45:25.477Z,2288.00
2022-10-22T12:46:25.471Z,2392.00
2022-10-22T12:47:25.473Z,1536.00
2022-10-22T12:48:25.476Z,2344.00
2022-10-22T12:49:25.479Z,2368.00
2022-10-22T12:50:25.471Z,2412.00
2022-10-22T12:51:25.501Z,2400.00
2022-10-22T12:52:25.475Z,2404.00
2022-10-22T12:53:25.494Z,2412.00